createdAt,value
2022-08-27T00:00:34.206Z,17.10
2022-08-27T00:03:02.722Z,17.10
2022-08-27T00:05:29.826Z,17.10
2022-08-27T00:07:56.689Z,17.20
2022-08-27T00:10:25.874Z,17.20
2022-08-27T00:12:53.777Z,17.10
2022-08-27T00:15:20.708Z,17.20
2022-08-27T00:17:48.187Z,17.20
2022-08-27T00:20:17.826Z,17.30
2022-08-27T00:22:45.023Z,17.20
2022-08-27T00:25:12.847Z,17.20
2022-08-27T00:27:40.310Z,17.10
2022-08-27T00:30:12.965Z,17.10
2022-08-27T00:32:41.220Z,17.10
2022-08-27T00:35:09.323Z,17.10
2022-08-27T00:37:36.727Z,17.10
2022-08-27T00:40:06.604Z,17.10
2022-08-27T00:42:33.692Z,17.10
2022-08-27T00:45:01.138Z,17.00
2022-08-27T00:47:31.718Z,17.00
2022-08-27T00:50:06.845Z,16.90
2022-08-27T00:52:35.567Z,16.90
2022-08-27T00:55:18.634Z,16.90
2022-08-27T00:57:50.345Z,16.80
2022-08-27T01:00:19.069Z,16.80
2022-08-27T01:02:47.617Z,16.80
2022-08-27T01:05:21.684Z,16.80
2022-08-27T01:07:51.749Z,16.80
2022-08-27T01:10:21.935Z,16.90
2022-08-27T01:12:53.782Z,16.80
2022-08-27T01:15:23.297Z,16.80
2022-08-27T01:17:51.010Z,16.70
2022-08-27T01:20:29.052Z,16.70
2022-08-27T01:23:18.670Z,16.70
2022-08-27T01:25:46.126Z,16.70
2022-08-27T01:28:14.501Z,16.70
2022-08-27T01:30:41.918Z,16.70
2022-08-27T01:33:16.851Z,16.70
2022-08-27T01:35:46.253Z,16.70
2022-08-27T01:38:30.428Z,16.70
2022-08-27T01:41:00.447Z,16.80
2022-08-27T01:43:29.205Z,16.70
2022-08-27T01:45:56.086Z,16.70
2022-08-27T01:48:23.284Z,16.80
2022-08-27T01:50:50.725Z,16.70
2022-08-27T01:53:27.563Z,16.70
2022-08-27T01:55:55.385Z,16.70
2022-08-27T01:58:27.894Z,16.80
2022-08-27T02:01:00.760Z,16.80
2022-08-27T02:03:27.793Z,16.80
2022-08-27T02:05:55.025Z,16.80
2022-08-27T02:08:22.018Z,16.70
2022-08-27T02:10:50.013Z,16.70
2022-08-27T02:13:17.748Z,16.70
2022-08-27T02:15:45.093Z,16.60
2022-08-27T02:18:12.445Z,16.50
2022-08-27T02:20:39.945Z,16.50
2022-08-27T02:23:07.266Z,16.50
2022-08-27T02:25:34.903Z,16.50
2022-08-27T02:28:02.015Z,16.50
2022-08-27T02:30:32.078Z,16.50
2022-08-27T02:33:01.042Z,16.60
2022-08-27T02:35:29.486Z,16.60
2022-08-27T02:37:57.038Z,16.60
2022-08-27T02:40:25.095Z,16.60
2022-08-27T02:42:52.518Z,16.70
2022-08-27T02:45:20.849Z,16.70
2022-08-27T02:47:48.638Z,16.60
2022-08-27T02:50:16.199Z,16.50
2022-08-27T02:52:45.361Z,16.60
2022-08-27T02:55:14.513Z,16.60
2022-08-27T02:57:44.587Z,16.70
2022-08-27T03:00:14.325Z,16.70
2022-08-27T03:02:41.582Z,16.70
2022-08-27T03:05:09.735Z,16.60
2022-08-27T03:07:37.365Z,16.60
2022-08-27T03:10:05.536Z,16.50
2022-08-27T03:12:34.312Z,16.50
2022-08-27T03:15:01.266Z,16.50
2022-08-27T03:17:46.508Z,16.50
2022-08-27T03:20:13.524Z,16.50
2022-08-27T03:22:40.838Z,16.60
2022-08-27T03:25:09.029Z,16.60
2022-08-27T03:27:36.090Z,16.60
2022-08-27T03:30:11.283Z,16.60
2022-08-27T03:32:39.436Z,16.50
2022-08-27T03:35:06.702Z,16.50
2022-08-27T03:37:33.670Z,16.50
2022-08-27T03:40:00.597Z,16.50
2022-08-27T03:42:27.922Z,16.50
2022-08-27T03:44:54.801Z,16.40
2022-08-27T03:47:23.720Z,16.40
2022-08-27T03:49:50.758Z,16.40
2022-08-27T03:52:17.851Z,16.30
2022-08-27T03:54:45.594Z,16.30
2022-08-27T03:57:12.746Z,16.30
2022-08-27T03:59:39.662Z,16.40
2022-08-27T04:02:06.913Z,16.40
2022-08-27T04:04:34.239Z,16.40
2022-08-27T04:07:01.126Z,16.40
2022-08-27T04:09:28.277Z,16.30
2022-08-27T04:11:55.314Z,16.30
2022-08-27T04:14:26.791Z,16.50
2022-08-27T04:16:56.006Z,16.50
2022-08-27T04:19:27.240Z,16.40
2022-08-27T04:21:58.331Z,16.40
2022-08-27T04:24:25.185Z,16.40
2022-08-27T04:26:52.095Z,16.40
2022-08-27T04:29:18.953Z,16.40
2022-08-27T04:31:45.943Z,16.40
2022-08-27T04:34:12.797Z,16.40
2022-08-27T04:36:39.882Z,16.40
2022-08-27T04:39:06.717Z,16.30
2022-08-27T04:41:34.342Z,16.40
2022-08-27T04:44:07.663Z,16.40
2022-08-27T04:46:39.574Z,16.50
2022-08-27T04:49:10.326Z,16.60
2022-08-27T04:51:39.352Z,16.60
2022-08-27T04:54:07.324Z,16.70
2022-08-27T04:56:35.921Z,16.70
2022-08-27T04:59:05.386Z,16.80
2022-08-27T05:01:32.682Z,16.80
2022-08-27T05:03:59.860Z,16.90
2022-08-27T05:06:26.886Z,17.10
2022-08-27T05:08:54.503Z,17.20
2022-08-27T05:11:23.684Z,17.40
2022-08-27T05:13:51.196Z,17.60
2022-08-27T05:16:22.028Z,17.80
2022-08-27T05:18:50.913Z,18.00
2022-08-27T05:21:23.703Z,18.10
2022-08-27T05:23:51.869Z,18.30
2022-08-27T05:26:19.217Z,18.40
2022-08-27T05:28:46.419Z,18.40
2022-08-27T05:31:14.962Z,18.50
2022-08-27T05:33:43.246Z,18.60
2022-08-27T05:36:17.874Z,18.60
2022-08-27T05:38:44.837Z,18.70
2022-08-27T05:41:15.102Z,18.80
2022-08-27T05:43:47.744Z,19.00
2022-08-27T05:46:19.025Z,19.10
2022-08-27T05:48:46.768Z,19.20
2022-08-27T05:51:19.759Z,19.30
2022-08-27T05:53:55.502Z,19.50
2022-08-27T05:56:24.978Z,19.50
2022-08-27T05:59:10.381Z,19.60
2022-08-27T06:01:40.932Z,19.70
2022-08-27T06:04:09.467Z,19.80
2022-08-27T06:06:38.453Z,20.00
2022-08-27T06:09:06.529Z,20.10
2022-08-27T06:11:33.874Z,20.20
2022-08-27T06:14:00.771Z,20.30
2022-08-27T06:16:28.087Z,20.40
2022-08-27T06:18:57.326Z,20.50
2022-08-27T06:21:25.073Z,20.60
2022-08-27T06:23:53.982Z,20.80
2022-08-27T06:26:23.190Z,20.90
2022-08-27T06:28:50.665Z,21.00
2022-08-27T06:31:21.265Z,21.10
2022-08-27T06:33:50.364Z,21.20
2022-08-27T06:36:22.914Z,21.40
2022-08-27T06:38:53.034Z,21.40
2022-08-27T06:41:23.895Z,21.60
2022-08-27T06:43:52.021Z,21.70
2022-08-27T06:46:22.223Z,21.90
2022-08-27T06:48:53.060Z,22.10
2022-08-27T06:51:26.354Z,22.20
2022-08-27T06:53:55.675Z,22.40
2022-08-27T06:56:22.914Z,22.50
2022-08-27T06:58:57.004Z,22.60
2022-08-27T07:01:28.011Z,22.80
2022-08-27T07:03:59.833Z,22.90
2022-08-27T07:06:29.456Z,23.00
2022-08-27T07:08:59.837Z,23.10
2022-08-27T07:11:28.602Z,23.30
2022-08-27T07:13:56.351Z,23.40
2022-08-27T07:16:24.935Z,23.60
2022-08-27T07:18:53.583Z,23.60
2022-08-27T07:21:21.749Z,23.60
2022-08-27T07:23:50.697Z,23.70
2022-08-27T07:26:19.428Z,23.70
2022-08-27T07:28:47.726Z,23.80
2022-08-27T07:31:19.089Z,23.90
2022-08-27T07:33:52.658Z,24.10
2022-08-27T07:36:21.224Z,24.20
2022-08-27T07:38:56.873Z,24.40
2022-08-27T07:41:32.482Z,24.60
2022-08-27T07:44:19.287Z,24.80
2022-08-27T07:46:48.625Z,24.90
2022-08-27T07:49:19.279Z,24.80
2022-08-27T07:51:46.795Z,24.70
2022-08-27T07:54:13.943Z,24.50
2022-08-27T07:56:41.159Z,24.50
2022-08-27T07:59:08.325Z,24.60
2022-08-27T08:01:36.058Z,24.60
2022-08-27T08:04:03.181Z,24.10
2022-08-27T08:06:30.246Z,24.40
2022-08-27T08:08:58.694Z,24.40
2022-08-27T08:11:26.271Z,24.40
2022-08-27T08:13:53.169Z,24.50
2022-08-27T08:16:20.986Z,24.70
2022-08-27T08:18:47.858Z,24.90
2022-08-27T08:21:15.178Z,25.00
2022-08-27T08:23:42.811Z,25.10
2022-08-27T08:26:12.122Z,25.30
2022-08-27T08:28:40.163Z,25.30
2022-08-27T08:31:07.906Z,25.40
2022-08-27T08:33:35.288Z,25.30
2022-08-27T08:36:09.997Z,25.30
2022-08-27T08:38:38.025Z,25.20
2022-08-27T08:41:06.842Z,25.00
2022-08-27T08:43:40.449Z,24.90
2022-08-27T08:46:22.545Z,24.80
2022-08-27T08:48:56.055Z,24.90
2022-08-27T08:51:29.890Z,24.90
2022-08-27T08:54:14.350Z,24.90
2022-08-27T08:57:06.011Z,24.90
2022-08-27T08:59:39.992Z,24.90
2022-08-27T09:02:13.160Z,24.70
2022-08-27T09:04:42.342Z,24.70
2022-08-27T09:07:33.315Z,24.80
2022-08-27T09:10:18.352Z,24.70
2022-08-27T09:12:45.898Z,24.90
2022-08-27T09:15:17.340Z,25.10
2022-08-27T09:17:45.474Z,25.20
2022-08-27T09:20:14.043Z,25.30
2022-08-27T09:23:15.377Z,25.20
2022-08-27T09:25:44.534Z,25.10
2022-08-27T09:28:33.066Z,25.10
2022-08-27T09:31:07.507Z,25.10
2022-08-27T09:33:44.427Z,25.20
2022-08-27T09:36:23.794Z,25.20
2022-08-27T09:39:00.385Z,25.20
2022-08-27T09:41:33.385Z,25.20
2022-08-27T09:44:12.151Z,25.10
2022-08-27T09:46:39.049Z,24.90
2022-08-27T09:49:17.571Z,25.00
2022-08-27T09:51:46.695Z,24.60
2022-08-27T09:54:39.609Z,24.50
2022-08-27T09:57:09.034Z,24.30
2022-08-27T09:59:50.443Z,24.20
2022-08-27T10:02:23.931Z,24.00
2022-08-27T10:05:01.398Z,24.00
2022-08-27T10:07:56.718Z,24.10
2022-08-27T10:10:37.159Z,24.00
2022-08-27T10:13:18.566Z,24.10
2022-08-27T10:15:49.603Z,24.20
2022-08-27T10:18:31.711Z,24.10
2022-08-27T10:21:24.175Z,24.30
2022-08-27T10:23:58.275Z,24.50
2022-08-27T10:26:34.046Z,24.70
2022-08-27T10:29:19.956Z,24.80
2022-08-27T10:32:06.298Z,25.00
2022-08-27T10:34:57.203Z,25.20
2022-08-27T10:37:56.481Z,25.40
2022-08-27T10:40:44.917Z,25.60
2022-08-27T10:43:14.522Z,25.80
2022-08-27T10:45:50.550Z,26.00
2022-08-27T10:48:55.664Z,26.30
2022-08-27T10:51:31.478Z,26.60
2022-08-27T10:54:31.207Z,27.00
2022-08-27T10:57:45.367Z,27.30
2022-08-27T11:00:16.064Z,27.50
2022-08-27T11:02:45.226Z,27.80
2022-08-27T11:05:17.195Z,28.20
2022-08-27T11:07:53.959Z,28.80
2022-08-27T11:10:26.486Z,29.10
2022-08-27T11:12:56.631Z,29.30
2022-08-27T11:15:30.852Z,29.30
2022-08-27T11:18:06.078Z,29.60
2022-08-27T11:21:02.286Z,29.80
2022-08-27T11:23:53.095Z,30.10
2022-08-27T11:26:20.221Z,30.30
2022-08-27T11:28:57.271Z,30.50
2022-08-27T11:32:02.734Z,30.30
2022-08-27T11:34:40.028Z,30.20
2022-08-27T11:37:24.352Z,30.40
2022-08-27T11:39:57.393Z,30.50
2022-08-27T11:42:37.033Z,30.10
2022-08-27T11:45:08.758Z,30.20
2022-08-27T11:47:35.741Z,30.30
2022-08-27T11:50:12.464Z,30.30
2022-08-27T11:52:41.868Z,30.50
2022-08-27T11:55:20.903Z,30.50
2022-08-27T11:58:07.425Z,30.60
2022-08-27T12:00:38.184Z,30.60
2022-08-27T12:03:19.286Z,30.60
2022-08-27T12:05:49.955Z,30.20
2022-08-27T12:08:22.973Z,30.30
2022-08-27T12:11:17.176Z,30.20
2022-08-27T12:14:12.531Z,29.90
2022-08-27T12:16:57.549Z,30.10
2022-08-27T12:19:45.994Z,30.10
2022-08-27T12:22:31.594Z,30.30
2022-08-27T12:24:59.166Z,30.60
2022-08-27T12:27:32.402Z,30.90
2022-08-27T12:30:22.444Z,31.00
2022-08-27T12:32:52.607Z,31.40
2022-08-27T12:35:32.766Z,31.60
2022-08-27T12:38:17.111Z,31.60
2022-08-27T12:40:54.555Z,31.80
2022-08-27T12:43:29.259Z,31.80
2022-08-27T12:46:08.471Z,31.60
2022-08-27T12:48:55.842Z,31.10
2022-08-27T12:51:27.222Z,30.70
2022-08-27T12:53:59.738Z,30.30
2022-08-27T12:56:44.327Z,29.90
2022-08-27T12:59:32.634Z,29.60
2022-08-27T13:02:21.280Z,29.30
2022-08-27T13:04:48.744Z,28.70
2022-08-27T13:07:38.024Z,28.40
2022-08-27T13:10:18.869Z,28.20
2022-08-27T13:12:47.959Z,28.10
2022-08-27T13:15:17.163Z,27.80
2022-08-27T13:17:46.591Z,27.70
2022-08-27T13:20:22.017Z,27.50
2022-08-27T13:22:50.022Z,27.40
2022-08-27T13:25:31.551Z,27.40
2022-08-27T13:28:07.936Z,27.50
2022-08-27T13:30:38.347Z,27.30
2022-08-27T13:33:08.118Z,27.00
2022-08-27T13:35:35.562Z,26.50
2022-08-27T13:38:04.517Z,26.30
2022-08-27T13:40:37.202Z,25.80
2022-08-27T13:43:10.820Z,25.60
2022-08-27T13:45:42.245Z,25.40
2022-08-27T13:48:11.663Z,25.00
2022-08-27T13:50:47.699Z,24.70
2022-08-27T13:53:39.288Z,24.40
2022-08-27T13:56:06.195Z,24.00
2022-08-27T13:58:34.809Z,23.70
2022-08-27T14:01:14.423Z,23.60
2022-08-27T14:04:00.478Z,23.30
2022-08-27T14:06:41.862Z,23.00
2022-08-27T14:09:18.642Z,22.80
2022-08-27T14:11:47.198Z,22.70
2022-08-27T14:14:16.753Z,22.70
2022-08-27T14:16:43.749Z,22.60
2022-08-27T14:19:26.691Z,22.60
2022-08-27T14:21:53.839Z,22.70
2022-08-27T14:24:20.859Z,22.60
2022-08-27T14:26:52.729Z,22.60
2022-08-27T14:29:20.642Z,22.60
2022-08-27T14:31:48.052Z,22.70
2022-08-27T14:34:14.960Z,22.80
2022-08-27T14:36:43.082Z,22.80
2022-08-27T14:39:11.689Z,22.80
2022-08-27T14:41:38.792Z,22.70
2022-08-27T14:44:07.174Z,22.70
2022-08-27T14:47:26.734Z,22.60
2022-08-27T14:49:30.778Z,22.50
2022-08-27T14:51:57.726Z,22.50
2022-08-27T14:54:29.157Z,22.40
2022-08-27T14:57:02.250Z,22.40
2022-08-27T14:59:29.621Z,22.30
2022-08-27T15:01:59.108Z,22.10
2022-08-27T15:04:27.391Z,22.00
2022-08-27T15:06:55.350Z,21.90
2022-08-27T15:09:22.624Z,21.80
2022-08-27T15:11:50.179Z,21.80
2022-08-27T15:14:23.825Z,21.80
2022-08-27T15:16:50.798Z,21.80
2022-08-27T15:19:17.669Z,21.80
2022-08-27T15:21:48.856Z,21.70
2022-08-27T15:24:25.953Z,21.70
2022-08-27T15:26:54.811Z,21.50
2022-08-27T15:29:21.654Z,21.10
2022-08-27T15:31:48.583Z,21.00
2022-08-27T15:34:15.450Z,20.90
2022-08-27T15:36:43.347Z,20.90
2022-08-27T15:39:10.439Z,20.80
2022-08-27T15:42:05.036Z,20.70
2022-08-27T15:44:27.130Z,20.70
2022-08-27T15:46:53.990Z,20.70
2022-08-27T15:49:20.889Z,20.70
2022-08-27T15:51:47.803Z,20.70
2022-08-27T15:54:14.681Z,20.70
2022-08-27T15:56:41.520Z,20.70
2022-08-27T15:59:09.698Z,20.70
2022-08-27T16:01:37.655Z,20.80
2022-08-27T16:04:06.167Z,20.70
2022-08-27T16:06:34.875Z,20.70
2022-08-27T16:09:02.419Z,20.60
2022-08-27T16:11:29.341Z,20.60
2022-08-27T16:13:56.321Z,20.60
2022-08-27T16:16:28.265Z,20.60
2022-08-27T16:18:55.385Z,20.60
2022-08-27T16:21:22.325Z,20.60
2022-08-27T16:23:49.615Z,20.60
2022-08-27T16:26:16.797Z,20.60
2022-08-27T16:28:44.751Z,20.60
2022-08-27T16:31:13.651Z,20.60
2022-08-27T16:33:44.234Z,20.60
2022-08-27T16:36:11.589Z,20.50
2022-08-27T16:38:38.727Z,20.40
2022-08-27T16:41:06.442Z,20.30
2022-08-27T16:43:33.641Z,20.20
2022-08-27T16:46:01.431Z,20.20
2022-08-27T16:48:48.138Z,20.20
2022-08-27T16:51:25.647Z,20.10
2022-08-27T16:53:52.957Z,20.00
2022-08-27T16:56:21.042Z,20.00
2022-08-27T16:58:53.347Z,20.00
2022-08-27T17:01:23.033Z,19.90
2022-08-27T17:04:09.021Z,19.80
2022-08-27T17:06:39.710Z,19.70
2022-08-27T17:09:07.494Z,19.60
2022-08-27T17:11:35.745Z,19.50
2022-08-27T17:14:03.505Z,19.50
2022-08-27T17:16:33.311Z,19.40
2022-08-27T17:19:00.871Z,19.40
2022-08-27T17:21:30.091Z,19.40
2022-08-27T17:23:59.457Z,19.30
2022-08-27T17:26:26.610Z,19.30
2022-08-27T17:28:53.811Z,19.30
2022-08-27T17:31:28.384Z,19.30
2022-08-27T17:33:59.295Z,19.20
2022-08-27T17:36:28.959Z,19.10
2022-08-27T17:38:56.916Z,19.10
2022-08-27T17:41:33.691Z,19.10
2022-08-27T17:44:09.563Z,19.00
2022-08-27T17:46:36.934Z,18.90
2022-08-27T17:49:04.074Z,18.80
2022-08-27T17:51:31.021Z,18.80
2022-08-27T17:54:01.169Z,18.70
2022-08-27T17:56:29.226Z,18.70
2022-08-27T17:58:56.524Z,18.70
2022-08-27T18:01:30.733Z,18.70
2022-08-27T18:03:58.754Z,18.70
2022-08-27T18:06:27.935Z,18.70
2022-08-27T18:08:54.960Z,18.70
2022-08-27T18:11:22.060Z,18.70
2022-08-27T18:13:53.032Z,18.70
2022-08-27T18:16:21.055Z,18.60
2022-08-27T18:18:48.378Z,18.50
2022-08-27T18:21:15.706Z,18.50
2022-08-27T18:23:53.491Z,18.50
2022-08-27T18:26:22.218Z,18.50
2022-08-27T18:28:49.974Z,18.40
2022-08-27T18:31:20.945Z,18.30
2022-08-27T18:33:48.163Z,18.20
2022-08-27T18:36:16.004Z,18.00
2022-08-27T18:38:43.143Z,18.00
2022-08-27T18:41:10.481Z,18.00
2022-08-27T18:43:38.361Z,18.00
2022-08-27T18:46:06.733Z,18.00
2022-08-27T18:48:34.393Z,18.10
2022-08-27T18:51:05.319Z,18.00
2022-08-27T18:53:36.080Z,18.00
2022-08-27T18:56:05.250Z,18.00
2022-08-27T18:58:32.279Z,17.90
2022-08-27T19:01:02.124Z,17.90
2022-08-27T19:03:33.471Z,17.80
2022-08-27T19:06:00.622Z,17.90
2022-08-27T19:08:28.901Z,17.90
2022-08-27T19:10:55.971Z,17.80
2022-08-27T19:13:23.339Z,17.80
2022-08-27T19:15:55.328Z,17.80
2022-08-27T19:18:25.424Z,17.70
2022-08-27T19:20:52.529Z,17.70
2022-08-27T19:23:22.241Z,17.60
2022-08-27T19:25:51.276Z,17.60
2022-08-27T19:28:23.178Z,17.60
2022-08-27T19:30:50.447Z,17.60
2022-08-27T19:33:17.833Z,17.60
2022-08-27T19:35:45.170Z,17.70
2022-08-27T19:38:13.993Z,17.70
2022-08-27T19:40:41.987Z,17.70
2022-08-27T19:43:09.503Z,17.80
2022-08-27T19:45:40.399Z,17.70
2022-08-27T19:48:08.785Z,17.70
2022-08-27T19:50:35.985Z,17.70
2022-08-27T19:53:03.307Z,17.80
2022-08-27T19:55:30.269Z,17.80
2022-08-27T19:57:57.643Z,17.90
2022-08-27T20:00:27.781Z,17.90
2022-08-27T20:02:55.736Z,17.90
2022-08-27T20:05:23.063Z,17.90
2022-08-27T20:07:53.278Z,17.80
2022-08-27T20:10:25.803Z,17.80
2022-08-27T20:13:03.358Z,17.70
2022-08-27T20:15:30.354Z,17.70
2022-08-27T20:17:59.368Z,17.70
2022-08-27T20:20:28.727Z,17.60
2022-08-27T20:22:56.162Z,17.60
2022-08-27T20:25:23.670Z,17.60
2022-08-27T20:27:51.814Z,17.60
2022-08-27T20:30:22.804Z,17.60
2022-08-27T20:32:50.285Z,17.60
2022-08-27T20:35:17.898Z,17.60
2022-08-27T20:37:46.273Z,17.70
2022-08-27T20:40:23.730Z,17.70
2022-08-27T20:42:50.800Z,17.60
2022-08-27T20:45:18.981Z,17.70
2022-08-27T20:47:48.102Z,17.70
2022-08-27T20:50:16.858Z,17.70
2022-08-27T20:52:45.002Z,17.70
2022-08-27T20:55:12.771Z,17.70
2022-08-27T20:58:03.218Z,17.70
2022-08-27T21:00:35.647Z,17.60
2022-08-27T21:03:02.727Z,17.60
2022-08-27T21:05:34.156Z,17.50
2022-08-27T21:08:05.594Z,17.50
2022-08-27T21:10:33.237Z,17.50
2022-08-27T21:13:04.363Z,17.50
2022-08-27T21:15:31.998Z,17.60
2022-08-27T21:17:58.850Z,17.60
2022-08-27T21:20:25.762Z,17.50
2022-08-27T21:22:52.747Z,17.50
2022-08-27T21:25:19.883Z,17.50
2022-08-27T21:27:46.748Z,17.50
2022-08-27T21:30:13.995Z,17.40
2022-08-27T21:32:41.711Z,17.40
2022-08-27T21:35:08.974Z,17.40
2022-08-27T21:37:36.604Z,17.40
2022-08-27T21:40:05.121Z,17.40
2022-08-27T21:42:32.204Z,17.40
2022-08-27T21:44:59.066Z,17.40
2022-08-27T21:47:26.027Z,17.40
2022-08-27T21:49:53.003Z,17.40
2022-08-27T21:52:19.863Z,17.40
2022-08-27T21:54:46.730Z,17.40
2022-08-27T21:57:15.720Z,17.40
2022-08-27T21:59:46.727Z,17.40
2022-08-27T22:02:38.343Z,17.30
2022-08-27T22:05:02.346Z,17.30
2022-08-27T22:07:29.214Z,17.20
2022-08-27T22:09:56.097Z,17.20
2022-08-27T22:12:23.015Z,17.20
2022-08-27T22:14:49.884Z,17.20
2022-08-27T22:17:16.854Z,17.20
2022-08-27T22:19:43.749Z,17.10
2022-08-27T22:22:10.854Z,17.10
2022-08-27T22:24:37.785Z,17.20
2022-08-27T22:27:04.833Z,17.10
2022-08-27T22:29:31.881Z,17.10
2022-08-27T22:31:58.875Z,17.10
2022-08-27T22:34:25.914Z,17.10
2022-08-27T22:36:53.028Z,17.10
2022-08-27T22:39:20.162Z,17.10
2022-08-27T22:41:49.201Z,17.10
2022-08-27T22:44:16.602Z,17.00
2022-08-27T22:46:43.541Z,17.00
2022-08-27T22:49:10.486Z,17.00
2022-08-27T22:51:37.386Z,16.90
2022-08-27T22:54:04.425Z,16.90
2022-08-27T22:56:31.863Z,16.90
2022-08-27T22:58:58.886Z,16.80
2022-08-27T23:01:25.895Z,16.80
2022-08-27T23:03:54.294Z,16.80
2022-08-27T23:06:21.453Z,16.70
2022-08-27T23:08:48.374Z,16.60
2022-08-27T23:11:16.081Z,16.60
2022-08-27T23:13:42.946Z,16.50
2022-08-27T23:16:10.045Z,16.40
2022-08-27T23:18:37.091Z,16.40
2022-08-27T23:21:06.072Z,16.40
2022-08-27T23:23:34.227Z,16.40
2022-08-27T23:26:19.419Z,16.30
2022-08-27T23:28:46.626Z,16.30
2022-08-27T23:31:14.532Z,16.30
2022-08-27T23:33:42.306Z,16.30
2022-08-27T23:36:10.053Z,16.20
2022-08-27T23:38:37.543Z,16.20
2022-08-27T23:41:05.733Z,16.10
2022-08-27T23:43:32.586Z,16.00
2022-08-27T23:45:59.467Z,16.00
2022-08-27T23:48:26.818Z,16.00
2022-08-27T23:50:53.711Z,16.00
2022-08-27T23:53:20.632Z,16.00
2022-08-27T23:55:47.763Z,15.90
2022-08-27T23:58:14.922Z,15.90
